Terminal Aerodrome Forecast
Issued by NWS

Home | Current Version | Previous Version | Text Only | Print | Product List | Glossary On
Versions: 1 2 3 4 5 6 7 8 9 10 11 12 13 14 15 16
000
FTUS43 KICT 221720
TAFSLN
TAF
KSLN 221720Z 2218/2318 25008KT P6SM SKC
     FM222100 20007KT P6SM SCT200
     FM222300 06008KT P6SM VCTS BKN070CB
     FM230600 06007KT P6SM BKN200=

USA.gov is the U.S. government's official web portal to all federal, state and local government web resources and services.